Date,TemperatureHighF,TemperatureAvgF,TemperatureLowF,DewpointHighF,DewpointAvgF,DewpointLowF,HumidityHigh,HumidityAvg,HumidityLow,PressureMaxIn,PressureMinIn,WindSpeedMaxMPH,WindSpeedAvgMPH,GustSpeedMaxMPH,PrecipitationSumIn
2013-2-1,60,51,39,35,26,18,58,40,22,30.35,30.19,15,5,22,0.00
2013-2-2,59,51,35,41,37,28,77,60,44,30.36,30.14,5,1,7,0.00
2013-2-3,62,55,45,37,35,32,71,49,34,30.12,29.95,12,5,19,0.00
2013-2-4,55,49,43,42,36,32,89,63,43,30.14,30.05,5,1,7,0.00
2013-2-5,69,58,42,53,49,40,92,73,49,30.09,29.97,6,1,10,0.00
2013-2-6,72,61,52,57,54,50,93,81,50,30.16,30.09,8,2,12,0.00
2013-2-7,63,58,55,62,57,53,97,94,87,30.11,29.72,11,4,20,1.41
2013-2-8,65,57,49,53,50,46,94,80,64,30.05,29.75,11,3,16,0.00
2013-2-9,63,53,45,49,41,34,89,66,35,30.32,30.08,6,2,10,0.00
2013-2-10,65,57,43,56,51,42,96,81,69,30.36,30.17,12,4,18,0.00
2013-2-11,66,63,60,62,60,58,96,92,86,30.18,30.06,6,1,7,0.91
2013-2-12,59,56,53,59,54,52,97,94,85,30.12,29.87,10,2,11,2.39
2013-2-13,76,65,53,66,55,47,97,74,48,29.90,29.70,12,4,24,0.85
2013-2-14,54,49,45,48,44,42,93,82,68,30.07,29.89,9,1,13,0.00
2013-2-15,61,52,41,46,44,35,95,74,40,30.11,29.97,6,1,10,0.00
2013-2-16,53,46,39,48,35,18,92,68,40,30.07,29.87,17,5,25,0.01
2013-2-17,49,42,32,25,18,10,57,40,21,30.32,30.07,15,4,21,0.00
2013-2-18,55,45,36,37,28,22,87,55,31,30.43,30.25,8,1,12,0.00
2013-2-19,64,58,41,55,52,37,96,83,62,30.25,29.98,5,2,13,0.06
2013-2-20,58,50,40,50,36,28,93,60,38,30.17,30.07,8,2,12,0.00
2013-2-21,66,56,42,51,43,32,96,64,29,30.18,30.08,6,2,10,0.00
2013-2-22,63,58,54,61,56,50,96,92,84,30.15,30.02,16,4,26,0.14
2013-2-23,58,54,51,57,53,50,97,97,96,29.96,29.82,10,2,18,1.52
2013-2-24,71,58,50,53,51,46,95,78,43,30.00,29.92,7,2,10,0.01
2013-2-25,57,51,44,54,49,43,96,94,85,30.05,29.88,17,4,30,0.71
2013-2-26,72,64,47,67,59,46,97,85,64,29.92,29.58,17,4,26,0.93
2013-2-27,56,53,49,44,41,37,72,64,55,29.92,29.84,15,4,20,0.00
2013-2-28,62,55,48,44,38,33,79,54,35,29.90,29.80,14,5,19,0.00